sensor_id;sensor_type;location;lat;lon;timestamp;P1;durP1;ratioP1;P2;durP2;ratioP2
77402;SDS011;66472;53.046;8.656;2023-05-07T00:00:36;35.03;;;32.23;;
77402;SDS011;66472;53.046;8.656;2023-05-07T00:05:52;33.30;;;30.50;;
77402;SDS011;66472;53.046;8.656;2023-05-07T00:10:51;33.10;;;30.30;;
77402;SDS011;66472;53.046;8.656;2023-05-07T00:15:46;30.83;;;28.03;;
77402;SDS011;66472;53.046;8.656;2023-05-07T00:20:41;31.57;;;28.53;;
77402;SDS011;66472;53.046;8.656;2023-05-07T00:25:37;31.85;;;28.95;;
77402;SDS011;66472;53.046;8.656;2023-05-07T00:30:32;29.10;;;26.57;;
77402;SDS011;66472;53.046;8.656;2023-05-07T00:35:28;39.73;;;36.47;;
77402;SDS011;66472;53.046;8.656;2023-05-07T00:40:23;34.40;;;31.90;;
77402;SDS011;66472;53.046;8.656;2023-05-07T00:45:19;29.00;;;26.73;;
77402;SDS011;66472;53.046;8.656;2023-05-07T00:50:14;26.43;;;24.23;;
77402;SDS011;66472;53.046;8.656;2023-05-07T00:55:09;28.60;;;26.23;;
77402;SDS011;66472;53.046;8.656;2023-05-07T01:00:06;27.00;;;24.70;;
77402;SDS011;66472;53.046;8.656;2023-05-07T01:05:02;26.77;;;24.40;;
77402;SDS011;66472;53.046;8.656;2023-05-07T01:09:59;27.70;;;25.40;;
77402;SDS011;66472;53.046;8.656;2023-05-07T01:14:55;30.70;;;28.10;;
77402;SDS011;66472;53.046;8.656;2023-05-07T01:19:50;32.73;;;29.70;;
77402;SDS011;66472;53.046;8.656;2023-05-07T01:24:48;29.97;;;27.47;;
77402;SDS011;66472;53.046;8.656;2023-05-07T01:29:45;28.47;;;26.03;;
77402;SDS011;66472;53.046;8.656;2023-05-07T01:34:40;29.43;;;26.83;;
77402;SDS011;66472;53.046;8.656;2023-05-07T01:39:37;30.03;;;27.23;;
77402;SDS011;66472;53.046;8.656;2023-05-07T01:44:32;25.47;;;23.27;;
77402;SDS011;66472;53.046;8.656;2023-05-07T01:49:28;31.30;;;28.40;;
77402;SDS011;66472;53.046;8.656;2023-05-07T01:54:27;28.43;;;26.07;;
77402;SDS011;66472;53.046;8.656;2023-05-07T01:59:27;29.30;;;26.40;;
77402;SDS011;66472;53.046;8.656;2023-05-07T02:04:22;32.80;;;29.80;;
77402;SDS011;66472;53.046;8.656;2023-05-07T02:09:18;27.73;;;25.23;;
77402;SDS011;66472;53.046;8.656;2023-05-07T02:14:15;31.17;;;28.37;;
77402;SDS011;66472;53.046;8.656;2023-05-07T02:19:11;25.77;;;23.50;;
77402;SDS011;66472;53.046;8.656;2023-05-07T02:24:06;29.87;;;27.43;;
77402;SDS011;66472;53.046;8.656;2023-05-07T02:29:02;31.70;;;29.00;;
77402;SDS011;66472;53.046;8.656;2023-05-07T02:33:57;26.90;;;24.67;;
77402;SDS011;66472;53.046;8.656;2023-05-07T02:38:53;27.93;;;25.33;;
77402;SDS011;66472;53.046;8.656;2023-05-07T02:43:49;27.57;;;25.07;;
77402;SDS011;66472;53.046;8.656;2023-05-07T02:48:44;23.47;;;21.47;;
77402;SDS011;66472;53.046;8.656;2023-05-07T02:53:40;24.47;;;22.20;;
77402;SDS011;66472;53.046;8.656;2023-05-07T02:58:35;27.83;;;25.37;;
77402;SDS011;66472;53.046;8.656;2023-05-07T03:03:32;24.60;;;22.33;;
77402;SDS011;66472;53.046;8.656;2023-05-07T03:08:28;23.60;;;21.57;;
77402;SDS011;66472;53.046;8.656;2023-05-07T03:13:23;29.73;;;27.23;;
77402;SDS011;66472;53.046;8.656;2023-05-07T03:18:19;27.27;;;25.07;;
77402;SDS011;66472;53.046;8.656;2023-05-07T03:23:15;25.63;;;23.20;;
77402;SDS011;66472;53.046;8.656;2023-05-07T03:28:11;26.07;;;23.77;;
77402;SDS011;66472;53.046;8.656;2023-05-07T03:33:12;30.57;;;27.83;;
77402;SDS011;66472;53.046;8.656;2023-05-07T03:38:09;27.13;;;24.50;;
77402;SDS011;66472;53.046;8.656;2023-05-07T03:43:06;24.10;;;21.77;;
77402;SDS011;66472;53.046;8.656;2023-05-07T03:48:04;23.40;;;21.30;;
77402;SDS011;66472;53.046;8.656;2023-05-07T03:53:00;26.13;;;23.77;;
77402;SDS011;66472;53.046;8.656;2023-05-07T03:57:57;24.27;;;22.13;;
77402;SDS011;66472;53.046;8.656;2023-05-07T04:02:55;26.43;;;24.00;;
77402;SDS011;66472;53.046;8.656;2023-05-07T04:07:55;24.03;;;21.97;;
77402;SDS011;66472;53.046;8.656;2023-05-07T04:12:56;27.60;;;25.13;;
77402;SDS011;66472;53.046;8.656;2023-05-07T04:17:52;25.20;;;22.90;;
77402;SDS011;66472;53.046;8.656;2023-05-07T04:22:51;26.33;;;23.73;;
77402;SDS011;66472;53.046;8.656;2023-05-07T04:27:46;26.47;;;24.07;;
77402;SDS011;66472;53.046;8.656;2023-05-07T04:32:42;24.03;;;21.83;;
77402;SDS011;66472;53.046;8.656;2023-05-07T04:37:40;26.73;;;24.23;;
77402;SDS011;66472;53.046;8.656;2023-05-07T04:42:35;24.90;;;22.57;;
77402;SDS011;66472;53.046;8.656;2023-05-07T04:47:32;25.97;;;23.50;;
77402;SDS011;66472;53.046;8.656;2023-05-07T04:52:29;26.07;;;23.43;;
77402;SDS011;66472;53.046;8.656;2023-05-07T04:57:24;25.37;;;23.17;;
77402;SDS011;66472;53.046;8.656;2023-05-07T05:02:20;25.37;;;22.97;;
77402;SDS011;66472;53.046;8.656;2023-05-07T05:07:16;23.47;;;21.47;;
77402;SDS011;66472;53.046;8.656;2023-05-07T05:12:11;25.13;;;23.07;;
77402;SDS011;66472;53.046;8.656;2023-05-07T05:17:07;25.97;;;23.57;;
77402;SDS011;66472;53.046;8.656;2023-05-07T05:22:05;28.30;;;25.53;;
77402;SDS011;66472;53.046;8.656;2023-05-07T05:27:01;29.07;;;26.83;;
77402;SDS011;66472;53.046;8.656;2023-05-07T05:31:58;25.40;;;23.37;;
77402;SDS011;66472;53.046;8.656;2023-05-07T05:36:55;25.33;;;23.03;;
77402;SDS011;66472;53.046;8.656;2023-05-07T05:41:52;24.93;;;22.77;;
77402;SDS011;66472;53.046;8.656;2023-05-07T05:46:49;25.33;;;22.90;;
77402;SDS011;66472;53.046;8.656;2023-05-07T05:51:45;23.30;;;20.97;;
77402;SDS011;66472;53.046;8.656;2023-05-07T05:56:42;20.87;;;19.17;;
77402;SDS011;66472;53.046;8.656;2023-05-07T06:01:37;20.83;;;18.70;;
77402;SDS011;66472;53.046;8.656;2023-05-07T06:06:34;20.37;;;18.57;;
77402;SDS011;66472;53.046;8.656;2023-05-07T06:11:31;22.03;;;20.13;;
77402;SDS011;66472;53.046;8.656;2023-05-07T06:16:26;19.17;;;17.40;;
77402;SDS011;66472;53.046;8.656;2023-05-07T06:21:22;16.50;;;15.07;;
77402;SDS011;66472;53.046;8.656;2023-05-07T06:26:18;16.30;;;15.00;;
77402;SDS011;66472;53.046;8.656;2023-05-07T06:31:16;15.57;;;14.17;;
77402;SDS011;66472;53.046;8.656;2023-05-07T06:36:18;14.97;;;13.77;;
77402;SDS011;66472;53.046;8.656;2023-05-07T06:41:14;20.10;;;18.40;;
77402;SDS011;66472;53.046;8.656;2023-05-07T06:46:11;15.57;;;14.27;;
77402;SDS011;66472;53.046;8.656;2023-05-07T06:51:07;15.67;;;14.37;;
77402;SDS011;66472;53.046;8.656;2023-05-07T06:56:03;13.83;;;12.63;;
77402;SDS011;66472;53.046;8.656;2023-05-07T07:00:58;16.47;;;15.17;;
77402;SDS011;66472;53.046;8.656;2023-05-07T07:05:54;15.77;;;14.50;;
77402;SDS011;66472;53.046;8.656;2023-05-07T07:10:50;15.73;;;14.50;;
77402;SDS011;66472;53.046;8.656;2023-05-07T07:15:45;17.63;;;16.30;;
77402;SDS011;66472;53.046;8.656;2023-05-07T07:20:41;15.60;;;14.33;;
77402;SDS011;66472;53.046;8.656;2023-05-07T07:25:37;16.83;;;15.13;;
77402;SDS011;66472;53.046;8.656;2023-05-07T07:30:33;14.03;;;12.87;;
77402;SDS011;66472;53.046;8.656;2023-05-07T07:35:29;15.77;;;14.37;;
77402;SDS011;66472;53.046;8.656;2023-05-07T07:40:25;13.27;;;12.27;;
77402;SDS011;66472;53.046;8.656;2023-05-07T07:45:21;15.20;;;14.00;;
77402;SDS011;66472;53.046;8.656;2023-05-07T07:50:18;15.37;;;14.27;;
77402;SDS011;66472;53.046;8.656;2023-05-07T07:55:14;16.47;;;15.17;;
77402;SDS011;66472;53.046;8.656;2023-05-07T08:00:13;12.53;;;11.63;;
77402;SDS011;66472;53.046;8.656;2023-05-07T08:05:20;14.23;;;13.13;;
77402;SDS011;66472;53.046;8.656;2023-05-07T08:10:17;13.47;;;12.37;;
77402;SDS011;66472;53.046;8.656;2023-05-07T08:20:21;12.23;;;11.23;;
77402;SDS011;66472;53.046;8.656;2023-05-07T08:25:16;11.33;;;10.33;;
77402;SDS011;66472;53.046;8.656;2023-05-07T08:30:12;13.37;;;12.37;;
77402;SDS011;66472;53.046;8.656;2023-05-07T08:35:08;11.30;;;10.43;;
77402;SDS011;66472;53.046;8.656;2023-05-07T08:40:04;12.23;;;11.30;;
77402;SDS011;66472;53.046;8.656;2023-05-07T08:45:03;11.80;;;10.90;;
77402;SDS011;66472;53.046;8.656;2023-05-07T08:50:04;13.17;;;12.17;;
77402;SDS011;66472;53.046;8.656;2023-05-07T08:55:01;13.50;;;12.50;;
77402;SDS011;66472;53.046;8.656;2023-05-07T08:59:57;13.33;;;12.33;;
77402;SDS011;66472;53.046;8.656;2023-05-07T09:04:52;13.10;;;12.13;;
77402;SDS011;66472;53.046;8.656;2023-05-07T09:09:48;14.70;;;13.67;;
77402;SDS011;66472;53.046;8.656;2023-05-07T09:14:44;13.07;;;12.07;;
77402;SDS011;66472;53.046;8.656;2023-05-07T09:19:40;11.63;;;10.77;;
77402;SDS011;66472;53.046;8.656;2023-05-07T09:24:37;10.33;;;9.53;;
77402;SDS011;66472;53.046;8.656;2023-05-07T09:29:35;11.30;;;10.40;;
77402;SDS011;66472;53.046;8.656;2023-05-07T09:34:33;11.87;;;10.97;;
77402;SDS011;66472;53.046;8.656;2023-05-07T09:44:56;12.13;;;11.03;;
77402;SDS011;66472;53.046;8.656;2023-05-07T09:49:56;11.53;;;10.63;;
77402;SDS011;66472;53.046;8.656;2023-05-07T09:54:53;12.20;;;11.20;;
77402;SDS011;66472;53.046;8.656;2023-05-07T09:59:52;12.90;;;12.00;;
77402;SDS011;66472;53.046;8.656;2023-05-07T10:04:49;11.67;;;10.77;;
77402;SDS011;66472;53.046;8.656;2023-05-07T10:09:49;11.53;;;10.63;;
77402;SDS011;66472;53.046;8.656;2023-05-07T10:14:56;11.23;;;10.23;;
77402;SDS011;66472;53.046;8.656;2023-05-07T10:19:53;11.80;;;10.80;;
77402;SDS011;66472;53.046;8.656;2023-05-07T10:24:49;10.43;;;9.63;;
77402;SDS011;66472;53.046;8.656;2023-05-07T10:30:00;11.03;;;9.93;;
77402;SDS011;66472;53.046;8.656;2023-05-07T10:35:02;10.57;;;9.57;;
77402;SDS011;66472;53.046;8.656;2023-05-07T10:39:58;10.67;;;9.70;;
77402;SDS011;66472;53.046;8.656;2023-05-07T10:44:56;10.43;;;9.53;;
77402;SDS011;66472;53.046;8.656;2023-05-07T11:10:14;10.77;;;9.80;;
77402;SDS011;66472;53.046;8.656;2023-05-07T11:15:33;12.17;;;10.43;;
77402;SDS011;66472;53.046;8.656;2023-05-07T11:20:45;10.73;;;9.80;;
77402;SDS011;66472;53.046;8.656;2023-05-07T11:25:50;10.67;;;9.70;;
77402;SDS011;66472;53.046;8.656;2023-05-07T11:30:50;11.63;;;10.67;;
77402;SDS011;66472;53.046;8.656;2023-05-07T11:35:48;14.53;;;13.43;;
77402;SDS011;66472;53.046;8.656;2023-05-07T11:40:51;10.30;;;9.37;;
77402;SDS011;66472;53.046;8.656;2023-05-07T11:45:48;9.70;;;8.83;;
77402;SDS011;66472;53.046;8.656;2023-05-07T11:50:54;11.30;;;10.30;;
77402;SDS011;66472;53.046;8.656;2023-05-07T11:55:55;10.50;;;9.60;;
77402;SDS011;66472;53.046;8.656;2023-05-07T12:00:57;10.77;;;9.67;;
77402;SDS011;66472;53.046;8.656;2023-05-07T12:05:56;10.63;;;9.73;;
77402;SDS011;66472;53.046;8.656;2023-05-07T12:10:54;10.60;;;9.70;;
77402;SDS011;66472;53.046;8.656;2023-05-07T12:15:51;11.00;;;9.90;;
77402;SDS011;66472;53.046;8.656;2023-05-07T12:21:04;10.20;;;9.20;;
77402;SDS011;66472;53.046;8.656;2023-05-07T12:26:01;10.67;;;9.77;;
77402;SDS011;66472;53.046;8.656;2023-05-07T12:30:59;11.13;;;10.23;;
77402;SDS011;66472;53.046;8.656;2023-05-07T12:35:55;10.60;;;9.60;;
77402;SDS011;66472;53.046;8.656;2023-05-07T12:40:54;10.30;;;9.50;;
77402;SDS011;66472;53.046;8.656;2023-05-07T12:45:51;10.47;;;9.57;;
77402;SDS011;66472;53.046;8.656;2023-05-07T12:50:59;8.90;;;8.20;;
77402;SDS011;66472;53.046;8.656;2023-05-07T12:56:06;9.33;;;8.53;;
77402;SDS011;66472;53.046;8.656;2023-05-07T13:01:05;9.60;;;8.80;;
77402;SDS011;66472;53.046;8.656;2023-05-07T13:06:08;9.17;;;8.43;;
77402;SDS011;66472;53.046;8.656;2023-05-07T13:11:11;8.23;;;7.47;;
77402;SDS011;66472;53.046;8.656;2023-05-07T13:16:10;7.10;;;6.60;;
77402;SDS011;66472;53.046;8.656;2023-05-07T13:21:08;9.07;;;8.37;;
77402;SDS011;66472;53.046;8.656;2023-05-07T13:26:06;8.57;;;7.77;;
77402;SDS011;66472;53.046;8.656;2023-05-07T13:31:01;7.57;;;6.77;;
77402;SDS011;66472;53.046;8.656;2023-05-07T13:35:58;8.20;;;7.50;;
77402;SDS011;66472;53.046;8.656;2023-05-07T13:40:57;8.27;;;7.63;;
77402;SDS011;66472;53.046;8.656;2023-05-07T13:45:53;7.13;;;6.43;;
77402;SDS011;66472;53.046;8.656;2023-05-07T13:50:48;7.03;;;6.33;;
77402;SDS011;66472;53.046;8.656;2023-05-07T13:55:46;7.25;;;6.57;;
77402;SDS011;66472;53.046;8.656;2023-05-07T14:00:42;10.60;;;9.90;;
77402;SDS011;66472;53.046;8.656;2023-05-07T14:05:38;7.77;;;7.27;;
77402;SDS011;66472;53.046;8.656;2023-05-07T14:10:33;6.43;;;5.97;;
77402;SDS011;66472;53.046;8.656;2023-05-07T14:15:30;6.40;;;5.90;;
77402;SDS011;66472;53.046;8.656;2023-05-07T14:20:25;6.43;;;5.97;;
77402;SDS011;66472;53.046;8.656;2023-05-07T14:25:21;7.23;;;6.53;;
77402;SDS011;66472;53.046;8.656;2023-05-07T14:30:20;7.00;;;6.40;;
77402;SDS011;66472;53.046;8.656;2023-05-07T14:35:17;6.77;;;6.27;;
77402;SDS011;66472;53.046;8.656;2023-05-07T14:40:13;8.60;;;7.97;;
77402;SDS011;66472;53.046;8.656;2023-05-07T14:45:11;7.67;;;7.03;;
77402;SDS011;66472;53.046;8.656;2023-05-07T14:50:07;7.10;;;6.57;;
77402;SDS011;66472;53.046;8.656;2023-05-07T14:55:05;7.67;;;7.07;;
77402;SDS011;66472;53.046;8.656;2023-05-07T15:00:01;7.27;;;6.73;;
77402;SDS011;66472;53.046;8.656;2023-05-07T15:04:56;10.00;;;9.30;;
77402;SDS011;66472;53.046;8.656;2023-05-07T15:09:52;9.27;;;7.30;;
77402;SDS011;66472;53.046;8.656;2023-05-07T15:14:47;7.53;;;6.83;;
77402;SDS011;66472;53.046;8.656;2023-05-07T15:19:43;7.70;;;7.10;;
77402;SDS011;66472;53.046;8.656;2023-05-07T15:24:45;7.40;;;6.90;;
77402;SDS011;66472;53.046;8.656;2023-05-07T15:29:42;8.67;;;7.97;;
77402;SDS011;66472;53.046;8.656;2023-05-07T15:34:38;9.77;;;8.97;;
77402;SDS011;66472;53.046;8.656;2023-05-07T15:39:34;8.07;;;7.47;;
77402;SDS011;66472;53.046;8.656;2023-05-07T15:44:30;6.80;;;6.27;;
77402;SDS011;66472;53.046;8.656;2023-05-07T15:49:27;7.67;;;7.07;;
77402;SDS011;66472;53.046;8.656;2023-05-07T15:54:22;10.03;;;9.23;;
77402;SDS011;66472;53.046;8.656;2023-05-07T15:59:18;7.67;;;6.97;;
77402;SDS011;66472;53.046;8.656;2023-05-07T16:04:13;6.83;;;6.33;;
77402;SDS011;66472;53.046;8.656;2023-05-07T16:09:08;7.63;;;7.00;;
77402;SDS011;66472;53.046;8.656;2023-05-07T16:14:18;7.93;;;7.13;;
77402;SDS011;66472;53.046;8.656;2023-05-07T16:19:32;7.70;;;7.00;;
77402;SDS011;66472;53.046;8.656;2023-05-07T16:24:38;8.77;;;6.50;;
77402;SDS011;66472;53.046;8.656;2023-05-07T16:29:41;8.10;;;7.40;;
77402;SDS011;66472;53.046;8.656;2023-05-07T16:34:42;7.73;;;7.13;;
77402;SDS011;66472;53.046;8.656;2023-05-07T16:39:41;8.37;;;7.77;;
77402;SDS011;66472;53.046;8.656;2023-05-07T16:44:42;8.00;;;7.20;;
77402;SDS011;66472;53.046;8.656;2023-05-07T16:49:38;7.17;;;6.57;;
77402;SDS011;66472;53.046;8.656;2023-05-07T17:00:16;7.03;;;6.53;;
77402;SDS011;66472;53.046;8.656;2023-05-07T17:05:12;7.50;;;6.90;;
77402;SDS011;66472;53.046;8.656;2023-05-07T17:10:08;8.20;;;7.60;;
77402;SDS011;66472;53.046;8.656;2023-05-07T17:15:22;6.47;;;6.07;;
77402;SDS011;66472;53.046;8.656;2023-05-07T17:20:20;6.67;;;6.00;;
77402;SDS011;66472;53.046;8.656;2023-05-07T17:25:39;6.27;;;5.77;;
77402;SDS011;66472;53.046;8.656;2023-05-07T17:31:08;6.87;;;6.37;;
77402;SDS011;66472;53.046;8.656;2023-05-07T17:48:09;7.03;;;5.90;;
77402;SDS011;66472;53.046;8.656;2023-05-07T17:53:04;6.20;;;5.70;;
77402;SDS011;66472;53.046;8.656;2023-05-07T17:58:00;6.07;;;5.57;;
77402;SDS011;66472;53.046;8.656;2023-05-07T18:02:57;6.40;;;5.90;;
77402;SDS011;66472;53.046;8.656;2023-05-07T18:07:54;6.10;;;5.60;;
77402;SDS011;66472;53.046;8.656;2023-05-07T18:12:49;7.23;;;6.63;;
77402;SDS011;66472;53.046;8.656;2023-05-07T18:17:45;7.43;;;6.83;;
77402;SDS011;66472;53.046;8.656;2023-05-07T18:22:40;6.90;;;6.30;;
77402;SDS011;66472;53.046;8.656;2023-05-07T18:27:35;7.40;;;6.77;;
77402;SDS011;66472;53.046;8.656;2023-05-07T18:32:31;8.20;;;7.47;;
77402;SDS011;66472;53.046;8.656;2023-05-07T18:37:26;7.43;;;6.80;;
77402;SDS011;66472;53.046;8.656;2023-05-07T18:42:21;7.10;;;6.50;;
77402;SDS011;66472;53.046;8.656;2023-05-07T18:47:17;6.93;;;6.33;;
77402;SDS011;66472;53.046;8.656;2023-05-07T18:52:12;6.60;;;6.13;;
77402;SDS011;66472;53.046;8.656;2023-05-07T18:57:07;7.73;;;7.07;;
77402;SDS011;66472;53.046;8.656;2023-05-07T19:02:03;6.83;;;6.33;;
77402;SDS011;66472;53.046;8.656;2023-05-07T19:06:58;6.80;;;6.40;;
77402;SDS011;66472;53.046;8.656;2023-05-07T19:11:54;6.97;;;6.35;;
77402;SDS011;66472;53.046;8.656;2023-05-07T19:16:49;7.47;;;6.90;;
77402;SDS011;66472;53.046;8.656;2023-05-07T19:21:44;7.33;;;6.73;;
77402;SDS011;66472;53.046;8.656;2023-05-07T19:26:40;8.03;;;7.43;;
77402;SDS011;66472;53.046;8.656;2023-05-07T19:31:35;7.93;;;7.33;;
77402;SDS011;66472;53.046;8.656;2023-05-07T19:36:30;7.70;;;7.10;;
77402;SDS011;66472;53.046;8.656;2023-05-07T19:41:28;9.40;;;8.67;;
77402;SDS011;66472;53.046;8.656;2023-05-07T19:46:23;14.37;;;7.70;;
77402;SDS011;66472;53.046;8.656;2023-05-07T19:51:19;8.38;;;7.78;;
77402;SDS011;66472;53.046;8.656;2023-05-07T19:56:14;8.38;;;7.78;;
77402;SDS011;66472;53.046;8.656;2023-05-07T20:01:10;8.13;;;7.53;;
77402;SDS011;66472;53.046;8.656;2023-05-07T20:06:05;8.97;;;8.27;;
77402;SDS011;66472;53.046;8.656;2023-05-07T20:11:00;8.90;;;8.07;;
77402;SDS011;66472;53.046;8.656;2023-05-07T20:15:59;8.20;;;7.60;;
77402;SDS011;66472;53.046;8.656;2023-05-07T20:20:54;9.40;;;8.70;;
77402;SDS011;66472;53.046;8.656;2023-05-07T20:25:50;9.97;;;8.30;;
77402;SDS011;66472;53.046;8.656;2023-05-07T20:30:46;8.43;;;7.67;;
77402;SDS011;66472;53.046;8.656;2023-05-07T20:35:41;9.23;;;8.52;;
77402;SDS011;66472;53.046;8.656;2023-05-07T20:40:37;9.30;;;8.70;;
77402;SDS011;66472;53.046;8.656;2023-05-07T20:45:32;9.70;;;8.90;;
77402;SDS011;66472;53.046;8.656;2023-05-07T20:50:28;10.50;;;9.73;;
77402;SDS011;66472;53.046;8.656;2023-05-07T20:55:23;9.30;;;8.60;;
77402;SDS011;66472;53.046;8.656;2023-05-07T21:00:18;10.30;;;9.53;;
77402;SDS011;66472;53.046;8.656;2023-05-07T21:05:14;9.67;;;8.97;;
77402;SDS011;66472;53.046;8.656;2023-05-07T21:10:09;9.40;;;8.60;;
77402;SDS011;66472;53.046;8.656;2023-05-07T21:15:04;8.43;;;7.80;;
77402;SDS011;66472;53.046;8.656;2023-05-07T21:20:00;9.77;;;8.17;;
77402;SDS011;66472;53.046;8.656;2023-05-07T21:24:58;8.90;;;8.23;;
77402;SDS011;66472;53.046;8.656;2023-05-07T21:29:53;7.70;;;7.13;;
77402;SDS011;66472;53.046;8.656;2023-05-07T21:34:51;8.13;;;7.43;;
77402;SDS011;66472;53.046;8.656;2023-05-07T21:39:46;8.07;;;7.27;;
77402;SDS011;66472;53.046;8.656;2023-05-07T21:44:41;7.77;;;7.07;;
77402;SDS011;66472;53.046;8.656;2023-05-07T21:49:37;7.95;;;7.25;;
77402;SDS011;66472;53.046;8.656;2023-05-07T21:54:32;8.20;;;7.50;;
77402;SDS011;66472;53.046;8.656;2023-05-07T21:59:27;7.85;;;7.18;;
77402;SDS011;66472;53.046;8.656;2023-05-07T22:04:22;8.15;;;7.10;;
77402;SDS011;66472;53.046;8.656;2023-05-07T22:09:18;8.80;;;8.10;;
77402;SDS011;66472;53.046;8.656;2023-05-07T22:14:14;9.15;;;8.35;;
77402;SDS011;66472;53.046;8.656;2023-05-07T22:19:09;8.75;;;8.15;;
77402;SDS011;66472;53.046;8.656;2023-05-07T22:24:05;9.10;;;8.40;;
77402;SDS011;66472;53.046;8.656;2023-05-07T22:29:01;9.77;;;9.07;;
77402;SDS011;66472;53.046;8.656;2023-05-07T22:33:56;8.77;;;7.97;;
77402;SDS011;66472;53.046;8.656;2023-05-07T22:38:52;9.43;;;8.63;;
77402;SDS011;66472;53.046;8.656;2023-05-07T22:43:47;10.37;;;9.53;;
77402;SDS011;66472;53.046;8.656;2023-05-07T22:48:42;10.23;;;9.43;;
77402;SDS011;66472;53.046;8.656;2023-05-07T22:53:38;10.27;;;9.20;;
77402;SDS011;66472;53.046;8.656;2023-05-07T22:58:33;9.83;;;9.00;;
77402;SDS011;66472;53.046;8.656;2023-05-07T23:03:28;9.77;;;8.97;;
77402;SDS011;66472;53.046;8.656;2023-05-07T23:08:24;10.48;;;9.68;;
77402;SDS011;66472;53.046;8.656;2023-05-07T23:13:19;10.30;;;9.32;;
77402;SDS011;66472;53.046;8.656;2023-05-07T23:18:14;10.25;;;9.40;;
77402;SDS011;66472;53.046;8.656;2023-05-07T23:23:10;9.60;;;8.87;;
77402;SDS011;66472;53.046;8.656;2023-05-07T23:28:05;11.15;;;10.27;;
77402;SDS011;66472;53.046;8.656;2023-05-07T23:33:00;10.97;;;10.17;;
77402;SDS011;66472;53.046;8.656;2023-05-07T23:37:56;10.43;;;9.63;;
77402;SDS011;66472;53.046;8.656;2023-05-07T23:42:52;10.57;;;9.77;;
77402;SDS011;66472;53.046;8.656;2023-05-07T23:47:47;11.25;;;10.45;;
77402;SDS011;66472;53.046;8.656;2023-05-07T23:52:42;11.43;;;10.43;;
77402;SDS011;66472;53.046;8.656;2023-05-07T23:57:38;9.80;;;9.02;;
